Time;durP1;ratioP1;P1;durP2;ratioP2;P2;SDS_P1;SDS_P2;PMS_P1;PMS_P2;Temp;Humidity;BMP_temperature;BMP_pressure;BME280_temperature;BME280_humidity;BME280_pressure;Samples;Min_cycle;Max_cycle;Signal;HPM_P1;HPM_P2
2023/10/19 00:02:01;;;;;;;;;;;;;;;;;;5186486;27;19926;-42
2023/10/19 00:04:32;;;;;;;;;;;;;;;;;;5181424;27;20018;-44
2023/10/19 00:06:58;;;;;;;;;;;;;;;;;;5164806;27;20022;-45
2023/10/19 00:09:23;;;;;;;;;;;;;;;;;;5180738;27;20063;-45
2023/10/19 00:11:51;;;;;;;;;;;;;;;;;;5185519;27;19930;-44
2023/10/19 00:14:17;;;;;;;;;;;;;;;;;;5182387;27;19923;-42
2023/10/19 00:16:44;;;;;;;;;;;;;;;;;;5164844;27;20398;-44
2023/10/19 00:19:10;;;;;;;;;;;;;;;;;;5178763;27;19929;-42
2023/10/19 00:21:50;;;;;;;;;;;;;;;;;;5185378;27;19926;-42
2023/10/19 00:24:17;;;;;;;;;;;;;;;;;;5183127;27;19931;-46
2023/10/19 00:26:43;;;;;;;;;;;;;;;;;;5164806;27;19981;-46
2023/10/19 00:29:40;;;;;;;;;;;;;;;;;;5178851;27;19965;-42
2023/10/19 00:31:56;;;;;;;;;;;;;;;;;;5170107;27;20178;-45
2023/10/19 00:34:21;;;;;;;;;;;;;;;;;;5170230;27;20347;-45
2023/10/19 00:36:48;;;;;;;;;;;;;;;;;;5164130;27;19951;-43
2023/10/19 00:39:16;;;;;;;;;;;;;;;;;;5180234;27;19968;-47
2023/10/19 00:41:43;;;;;;;;;;;;;;;;;;5182685;27;19962;-47
2023/10/19 00:44:10;;;;;;;;;;;;;;;;;;5157436;27;19980;-43
2023/10/19 00:46:43;;;;;;;;;;;;;;;;;;5144306;27;19967;-46
2023/10/19 00:49:09;;;;;;;;;;;;;;;;;;5156812;27;19923;-46
2023/10/19 00:54:10;;;;;;;;;;;;;;;;;;5186779;27;20003;-43
2023/10/19 00:56:36;;;;;;;;;;;;;;;;;;5186460;27;20017;-47
2023/10/19 00:59:21;;;;;;;;;;;;;;;;;;5173542;27;19967;-45
2023/10/19 01:01:48;;;;;;;;;;;;;;;;;;5165225;27;19959;-46
2023/10/19 01:04:15;;;;;;;;;;;;;;;;;;5164685;27;19929;-45
2023/10/19 01:06:45;;;;;;;;;;;;;;;;;;5164581;27;19935;-41
2023/10/19 01:09:14;;;;;;;;;;;;;;;;;;5164261;27;19973;-45
2023/10/19 01:11:41;;;;;;;;;;;;;;;;;;5165011;27;19993;-46
2023/10/19 01:14:07;;;;;;;;;;;;;;;;;;5165183;27;20378;-42
2023/10/19 01:16:32;;;;;;;;;;;;;;;;;;5165105;27;19998;-45
2023/10/19 01:18:58;;;;;;;;;;;;;;;;;;5164782;27;20287;-44
2023/10/19 01:21:44;;;;;;;;;;;;;;;;;;5164977;27;19935;-43
2023/10/19 01:24:12;;;;;;;;;;;;;;;;;;5149884;27;19974;-43
2023/10/19 01:26:38;;;;;;;;;;;;;;;;;;5144208;27;20394;-44
2023/10/19 01:29:13;;;;;;;;;;;;;;;;;;5157108;27;19962;-46
2023/10/19 01:31:50;;;;;;;;;;;;;;;;;;5165461;27;20025;-44
2023/10/19 01:34:19;;;;;;;;;;;;;;;;;;5165958;27;19930;-44
2023/10/19 01:36:45;;;;;;;;;;;;;;;;;;5164747;27;19927;-43
2023/10/19 01:39:11;;;;;;;;;;;;;;;;;;5165595;27;20082;-41
2023/10/19 01:41:36;;;;;;;;;;;;;;;;;;5162980;27;19927;-46
2023/10/19 01:44:06;;;;;;;;;;;;;;;;;;5145200;27;19924;-43
2023/10/19 01:46:33;;;;;;;;;;;;;;;;;;5143818;27;19923;-44
2023/10/19 01:48:58;;;;;;;;;;;;;;;;;;5144047;27;19923;-45
2023/10/19 01:51:25;;;;;;;;;;;;;;;;;;5154047;27;19933;-43
2023/10/19 01:53:50;;;;;;;;;;;;;;;;;;5165838;27;20071;-44
2023/10/19 01:56:17;;;;;;;;;;;;;;;;;;5148594;27;20267;-44
2023/10/19 01:58:42;;;;;;;;;;;;;;;;;;5144134;27;19923;-45
2023/10/19 02:01:14;;;;;;;;;;;;;;;;;;5144173;27;19945;-41
2023/10/19 02:03:43;;;;;;;;;;;;;;;;;;5141859;27;19935;-42
2023/10/19 02:08:56;;;;;;;;;;;;;;;;;;5114024;28;19927;-47
2023/10/19 02:11:21;;;;;;;;;;;;;;;;;;5130410;28;19978;-43
2023/10/19 02:13:47;;;;;;;;;;;;;;;;;;5130015;28;20018;-45
2023/10/19 02:16:14;;;;;;;;;;;;;;;;;;5128775;27;19931;-44
2023/10/19 02:18:40;;;;;;;;;;;;;;;;;;5129935;27;19924;-46
2023/10/19 02:21:06;;;;;;;;;;;;;;;;;;5129640;28;20389;-46
2023/10/19 02:23:33;;;;;;;;;;;;;;;;;;5129888;28;19974;-41
2023/10/19 02:25:59;;;;;;;;;;;;;;;;;;5129554;27;20011;-43
2023/10/19 02:28:31;;;;;;;;;;;;;;;;;;5129309;27;19923;-44
2023/10/19 02:30:56;;;;;;;;;;;;;;;;;;5129922;28;19923;-43
2023/10/19 02:33:22;;;;;;;;;;;;;;;;;;5130044;28;19935;-44
2023/10/19 02:35:48;;;;;;;;;;;;;;;;;;5129223;27;20665;-43
2023/10/19 02:38:13;;;;;;;;;;;;;;;;;;5128844;27;20014;-45
2023/10/19 02:40:39;;;;;;;;;;;;;;;;;;5129797;28;19932;-42
2023/10/19 02:43:04;;;;;;;;;;;;;;;;;;5128889;27;19938;-44
2023/10/19 02:45:30;;;;;;;;;;;;;;;;;;5129657;27;20348;-43
2023/10/19 02:47:56;;;;;;;;;;;;;;;;;;5128296;27;19990;-45
2023/10/19 02:50:23;;;;;;;;;;;;;;;;;;5122413;27;20410;-45
2023/10/19 02:52:48;;;;;;;;;;;;;;;;;;5149592;27;20013;-44
2023/10/19 02:55:16;;;;;;;;;;;;;;;;;;5143431;27;20379;-44
2023/10/19 02:57:44;;;;;;;;;;;;;;;;;;5128861;27;19928;-44
2023/10/19 03:00:13;;;;;;;;;;;;;;;;;;5129768;28;20019;-44
2023/10/19 03:02:38;;;;;;;;;;;;;;;;;;5128394;28;19962;-42
2023/10/19 03:05:12;;;;;;;;;;;;;;;;;;5132640;27;20355;-43
2023/10/19 03:07:38;;;;;;;;;;;;;;;;;;5147868;27;19923;-43
2023/10/19 03:10:05;;;;;;;;;;;;;;;;;;5128538;28;19938;-43
2023/10/19 03:12:30;;;;;;;;;;;;;;;;;;5128695;28;19962;-45
2023/10/19 03:14:56;;;;;;;;;;;;;;;;;;5128365;27;19932;-44
2023/10/19 03:17:21;;;;;;;;;;;;;;;;;;5127454;28;19972;-42
2023/10/19 03:19:48;;;;;;;;;;;;;;;;;;5128908;27;19923;-44
2023/10/19 03:22:14;;;;;;;;;;;;;;;;;;5128464;28;20280;-45
2023/10/19 03:24:42;;;;;;;;;;;;;;;;;;5128756;27;19973;-44
2023/10/19 03:27:13;;;;;;;;;;;;;;;;;;5148117;27;20242;-45
2023/10/19 03:29:38;;;;;;;;;;;;;;;;;;5131387;27;20384;-45
2023/10/19 03:32:04;;;;;;;;;;;;;;;;;;5128762;28;19934;-47
2023/10/19 03:34:32;;;;;;;;;;;;;;;;;;5128843;28;19976;-44
2023/10/19 03:37:04;;;;;;;;;;;;;;;;;;5128297;27;19931;-46
2023/10/19 03:39:30;;;;;;;;;;;;;;;;;;5127894;27;19924;-46
2023/10/19 03:41:56;;;;;;;;;;;;;;;;;;5128583;28;20003;-44
2023/10/19 03:47:01;;;;;;;;;;;;;;;;;;5128393;27;19927;-43
2023/10/19 03:49:33;;;;;;;;;;;;;;;;;;5126933;27;19939;-43
2023/10/19 03:51:59;;;;;;;;;;;;;;;;;;5127803;28;19923;-44
2023/10/19 03:54:25;;;;;;;;;;;;;;;;;;5128662;28;19930;-44
2023/10/19 03:56:50;;;;;;;;;;;;;;;;;;5128317;27;19927;-45
2023/10/19 03:59:17;;;;;;;;;;;;;;;;;;5127992;27;19954;-41
2023/10/19 04:01:43;;;;;;;;;;;;;;;;;;5128986;28;19983;-45
2023/10/19 04:04:09;;;;;;;;;;;;;;;;;;5128910;28;19924;-44
2023/10/19 04:06:34;;;;;;;;;;;;;;;;;;5127559;27;19928;-45
2023/10/19 04:09:00;;;;;;;;;;;;;;;;;;5128083;27;19990;-44
2023/10/19 04:11:32;;;;;;;;;;;;;;;;;;5128006;28;19923;-44
2023/10/19 04:13:59;;;;;;;;;;;;;;;;;;5128385;28;19967;-43
2023/10/19 04:16:24;;;;;;;;;;;;;;;;;;5127706;27;19970;-43
2023/10/19 04:18:50;;;;;;;;;;;;;;;;;;5127952;27;20331;-45
2023/10/19 04:21:15;;;;;;;;;;;;;;;;;;5128147;28;19950;-45
2023/10/19 04:23:41;;;;;;;;;;;;;;;;;;5128612;28;20017;-44
2023/10/19 04:26:14;;;;;;;;;;;;;;;;;;5126924;27;20069;-44
2023/10/19 04:28:55;;;;;;;;;;;;;;;;;;5126527;27;19927;-42
2023/10/19 04:31:23;;;;;;;;;;;;;;;;;;5127453;28;19924;-43
2023/10/19 04:33:49;;;;;;;;;;;;;;;;;;5127500;28;20045;-43
2023/10/19 04:36:14;;;;;;;;;;;;;;;;;;5126751;27;19963;-43
2023/10/19 04:38:40;;;;;;;;;;;;;;;;;;5127361;27;20007;-45
2023/10/19 04:41:07;;;;;;;;;;;;;;;;;;5126660;28;20384;-46
2023/10/19 04:43:33;;;;;;;;;;;;;;;;;;5127741;27;19979;-44
2023/10/19 04:45:59;;;;;;;;;;;;;;;;;;5126929;27;19927;-43
2023/10/19 04:48:24;;;;;;;;;;;;;;;;;;5125081;27;19976;-42
2023/10/19 04:50:50;;;;;;;;;;;;;;;;;;5128533;27;20283;-42
2023/10/19 04:53:15;;;;;;;;;;;;;;;;;;5126627;28;20045;-45
2023/10/19 04:55:42;;;;;;;;;;;;;;;;;;5126999;27;20011;-44
2023/10/19 04:58:07;;;;;;;;;;;;;;;;;;5127534;27;20274;-46
2023/10/19 05:00:33;;;;;;;;;;;;;;;;;;5128108;28;19959;-45
2023/10/19 05:02:58;;;;;;;;;;;;;;;;;;5128030;28;20420;-43
2023/10/19 05:05:24;;;;;;;;;;;;;;;;;;5126566;27;20011;-45
2023/10/19 05:07:49;;;;;;;;;;;;;;;;;;5126636;27;19930;-44
2023/10/19 05:10:14;;;;;;;;;;;;;;;;;;5127840;28;20002;-47
2023/10/19 05:12:40;;;;;;;;;;;;;;;;;;5124431;28;20061;-46
2023/10/19 05:15:05;;;;;;;;;;;;;;;;;;5112287;27;19934;-46
2023/10/19 05:17:31;;;;;;;;;;;;;;;;;;5119997;27;20344;-45
2023/10/19 05:19:56;;;;;;;;;;;;;;;;;;5121900;27;20102;-44
2023/10/19 05:22:24;;;;;;;;;;;;;;;;;;5117045;28;20444;-44
2023/10/19 05:24:50;;;;;;;;;;;;;;;;;;5106286;28;19977;-46
2023/10/19 05:27:15;;;;;;;;;;;;;;;;;;5117924;27;20022;-44
2023/10/19 05:29:42;;;;;;;;;;;;;;;;;;5124012;27;19927;-46
2023/10/19 05:32:09;;;;;;;;;;;;;;;;;;5116175;28;20311;-45
2023/10/19 05:34:35;;;;;;;;;;;;;;;;;;5116662;28;20022;-43
2023/10/19 05:37:02;;;;;;;;;;;;;;;;;;5133268;27;19940;-41
2023/10/19 05:39:27;;;;;;;;;;;;;;;;;;5122099;27;19923;-45
2023/10/19 05:41:53;;;;;;;;;;;;;;;;;;5123863;28;19954;-43
2023/10/19 05:44:19;;;;;;;;;;;;;;;;;;5128665;27;19974;-46
2023/10/19 05:46:46;;;;;;;;;;;;;;;;;;5125456;27;19963;-41
2023/10/19 05:49:12;;;;;;;;;;;;;;;;;;5128857;27;19934;-42
2023/10/19 05:51:37;;;;;;;;;;;;;;;;;;5114372;27;19932;-42
2023/10/19 05:54:03;;;;;;;;;;;;;;;;;;5122090;28;20344;-44
2023/10/19 05:56:30;;;;;;;;;;;;;;;;;;5122671;27;20098;-42
2023/10/19 05:58:55;;;;;;;;;;;;;;;;;;5119849;27;20517;-47
2023/10/19 06:01:22;;;;;;;;;;;;;;;;;;5109165;28;19927;-41
2023/10/19 06:03:47;;;;;;;;;;;;;;;;;;5100969;27;19957;-45
2023/10/19 06:06:13;;;;;;;;;;;;;;;;;;5115410;27;20092;-42
2023/10/19 06:08:38;;;;;;;;;;;;;;;;;;5117248;27;19927;-45
2023/10/19 06:11:04;;;;;;;;;;;;;;;;;;5121537;27;19977;-44
2023/10/19 06:13:31;;;;;;;;;;;;;;;;;;5111664;28;19931;-43
2023/10/19 06:15:56;;;;;;;;;;;;;;;;;;5116734;27;20030;-43
2023/10/19 06:18:22;;;;;;;;;;;;;;;;;;5120707;27;20006;-43
2023/10/19 06:20:50;;;;;;;;;;;;;;;;;;5124550;27;20392;-44
2023/10/19 06:23:16;;;;;;;;;;;;;;;;;;5121533;27;20232;-43
2023/10/19 06:25:43;;;;;;;;;;;;;;;;;;5129717;27;19965;-46
2023/10/19 06:28:08;;;;;;;;;;;;;;;;;;5135903;27;19923;-45
2023/10/19 06:30:34;;;;;;;;;;;;;;;;;;5123444;27;20283;-45
2023/10/19 06:33:00;;;;;;;;;;;;;;;;;;5119038;28;19972;-44
2023/10/19 06:35:26;;;;;;;;;;;;;;;;;;5119542;27;19932;-42
2023/10/19 06:37:51;;;;;;;;;;;;;;;;;;5124566;27;20116;-42
2023/10/19 06:40:17;;;;;;;;;;;;;;;;;;5132236;27;19927;-41
2023/10/19 06:42:42;;;;;;;;;;;;;;;;;;5121790;27;19930;-49
2023/10/19 06:45:09;;;;;;;;;;;;;;;;;;5123538;28;20026;-45
2023/10/19 06:47:37;;;;;;;;;;;;;;;;;;5112063;27;20391;-52
2023/10/19 06:50:05;;;;;;;;;;;;;;;;;;5107630;27;19927;-48
2023/10/19 06:52:32;;;;;;;;;;;;;;;;;;5108465;28;19931;-49
2023/10/19 06:54:57;;;;;;;;;;;;;;;;;;5110185;28;20406;-51
2023/10/19 06:57:23;;;;;;;;;;;;;;;;;;5105916;27;20037;-50
2023/10/19 06:59:48;;;;;;;;;;;;;;;;;;5108168;27;19927;-55
2023/10/19 07:02:14;;;;;;;;;;;;;;;;;;5108235;27;19938;-44
2023/10/19 07:04:39;;;;;;;;;;;;;;;;;;5095928;28;19927;-44
2023/10/19 07:07:05;;;;;;;;;;;;;;;;;;5097918;27;20032;-45
2023/10/19 07:09:31;;;;;;;;;;;;;;;;;;5102708;27;20337;-41
2023/10/19 07:11:56;;;;;;;;;;;;;;;;;;5110990;28;19935;-42
2023/10/19 07:14:22;;;;;;;;;;;;;;;;;;5107659;27;20043;-40
2023/10/19 07:16:47;;;;;;;;;;;;;;;;;;5107618;27;19947;-41
2023/10/19 07:19:14;;;;;;;;;;;;;;;;;;5110300;27;20014;-41
2023/10/19 07:21:42;;;;;;;;;;;;;;;;;;5107661;27;19932;-40
2023/10/19 07:24:10;;;;;;;;;;;;;;;;;;5109232;27;19932;-40
2023/10/19 07:26:43;;;;;;;;;;;;;;;;;;5110554;27;19992;-42
2023/10/19 07:29:10;;;;;;;;;;;;;;;;;;5110286;27;20569;-43
2023/10/19 07:31:35;;;;;;;;;;;;;;;;;;5108303;28;19923;-42
2023/10/19 07:34:01;;;;;;;;;;;;;;;;;;5108720;28;20051;-43
2023/10/19 07:36:28;;;;;;;;;;;;;;;;;;5111824;27;21321;-41
2023/10/19 07:38:55;;;;;;;;;;;;;;;;;;5102359;27;19984;-41
2023/10/19 07:41:20;;;;;;;;;;;;;;;;;;5107442;27;19971;-42
2023/10/19 07:43:46;;;;;;;;;;;;;;;;;;5109817;27;20018;-43
2023/10/19 07:46:12;;;;;;;;;;;;;;;;;;5105982;27;19927;-41
2023/10/19 07:48:38;;;;;;;;;;;;;;;;;;5111195;27;20408;-41
2023/10/19 07:51:03;;;;;;;;;;;;;;;;;;5108137;27;19992;-46
2023/10/19 07:53:30;;;;;;;;;;;;;;;;;;5110134;27;20038;-45
2023/10/19 07:55:57;;;;;;;;;;;;;;;;;;5108589;27;20410;-42
2023/10/19 07:58:22;;;;;;;;;;;;;;;;;;5108387;27;20379;-43
2023/10/19 08:00:47;;;;;;;;;;;;;;;;;;5109600;27;19931;-44
2023/10/19 08:03:15;;;;;;;;;;;;;;;;;;5097808;27;20337;-45
2023/10/19 08:05:41;;;;;;;;;;;;;;;;;;5098319;27;20004;-44
2023/10/19 08:08:06;;;;;;;;;;;;;;;;;;5014412;28;20031;-45
2023/10/19 08:10:34;;;;;;;;;;;;;;;;;;5027758;28;20167;-45
2023/10/19 08:12:59;;;;;;;;;;;;;;;;;;5026274;28;20113;-43
2023/10/19 08:15:26;;;;;;;;;;;;;;;;;;5030574;28;19968;-44
2023/10/19 08:17:53;;;;;;;;;;;;;;;;;;5029009;28;20715;-43
2023/10/19 08:20:36;;;;;;;;;;;;;;;;;;5035187;28;19928;-46
2023/10/19 08:23:02;;;;;;;;;;;;;;;;;;5037394;28;20420;-44
2023/10/19 08:25:28;;;;;;;;;;;;;;;;;;5046555;28;19927;-45
2023/10/19 08:28:09;;;;;;;;;;;;;;;;;;5118189;27;19927;-43
2023/10/19 08:30:34;;;;;;;;;;;;;;;;;;5116913;28;19975;-44
2023/10/19 08:33:01;;;;;;;;;;;;;;;;;;5108842;28;20266;-44
2023/10/19 08:35:27;;;;;;;;;;;;;;;;;;5093445;28;19967;-43
2023/10/19 08:37:52;;;;;;;;;;;;;;;;;;5096111;27;20341;-43
2023/10/19 08:40:19;;;;;;;;;;;;;;;;;;5094219;27;20428;-44
2023/10/19 08:42:45;;;;;;;;;;;;;;;;;;5087600;27;19982;-44
2023/10/19 08:45:13;;;;;;;;;;;;;;;;;;5099648;27;20436;-45
2023/10/19 08:47:39;;;;;;;;;;;;;;;;;;5098424;27;19935;-45
2023/10/19 08:50:05;;;;;;;;;;;;;;;;;;5102857;27;20022;-43
2023/10/19 08:52:32;;;;;;;;;;;;;;;;;;5104176;27;19935;-45
2023/10/19 08:54:58;;;;;;;;;;;;;;;;;;5102835;27;20285;-46
2023/10/19 08:57:24;;;;;;;;;;;;;;;;;;5107496;27;20336;-43
2023/10/19 08:59:49;;;;;;;;;;;;;;;;;;5103659;27;20019;-44
2023/10/19 09:02:16;;;;;;;;;;;;;;;;;;5104001;27;19932;-47
2023/10/19 09:04:42;;;;;;;;;;;;;;;;;;5108348;28;19931;-44
2023/10/19 09:07:10;;;;;;;;;;;;;;;;;;5103951;27;20026;-42
2023/10/19 09:09:39;;;;;;;;;;;;;;;;;;5105406;27;19975;-45
2023/10/19 09:12:05;;;;;;;;;;;;;;;;;;5107279;27;19964;-47
2023/10/19 09:14:30;;;;;;;;;;;;;;;;;;5107130;27;19939;-44
2023/10/19 09:16:56;;;;;;;;;;;;;;;;;;5108385;27;20036;-43
2023/10/19 09:19:22;;;;;;;;;;;;;;;;;;5109116;27;19935;-42
2023/10/19 09:21:47;;;;;;;;;;;;;;;;;;5106737;27;19966;-43
2023/10/19 09:24:13;;;;;;;;;;;;;;;;;;5105785;27;19928;-45
2023/10/19 09:26:38;;;;;;;;;;;;;;;;;;5110742;27;19924;-45
2023/10/19 09:29:04;;;;;;;;;;;;;;;;;;5106741;27;19927;-43
2023/10/19 09:31:30;;;;;;;;;;;;;;;;;;5103806;27;20090;-43
2023/10/19 09:33:56;;;;;;;;;;;;;;;;;;5106008;27;20380;-44
2023/10/19 09:36:23;;;;;;;;;;;;;;;;;;5101104;27;20005;-43
2023/10/19 09:38:48;;;;;;;;;;;;;;;;;;5104726;27;19985;-42
2023/10/19 09:41:14;;;;;;;;;;;;;;;;;;5102810;27;20384;-45
2023/10/19 09:43:40;;;;;;;;;;;;;;;;;;5098157;27;19954;-43
2023/10/19 09:46:05;;;;;;;;;;;;;;;;;;5098721;27;20010;-43
2023/10/19 09:48:35;;;;;;;;;;;;;;;;;;5116284;27;19932;-44
2023/10/19 09:51:00;;;;;;;;;;;;;;;;;;5105254;27;19927;-44
2023/10/19 09:53:26;;;;;;;;;;;;;;;;;;5115799;27;20505;-43
2023/10/19 09:55:52;;;;;;;;;;;;;;;;;;5095568;27;20031;-44
2023/10/19 09:58:17;;;;;;;;;;;;;;;;;;5095496;27;19931;-43
2023/10/19 10:00:44;;;;;;;;;;;;;;;;;;5098661;27;19939;-44
2023/10/19 10:03:11;;;;;;;;;;;;;;;;;;5102753;27;19958;-43
2023/10/19 10:05:37;;;;;;;;;;;;;;;;;;5097346;27;19927;-44
2023/10/19 10:08:03;;;;;;;;;;;;;;;;;;5096467;27;19931;-45
2023/10/19 10:10:28;;;;;;;;;;;;;;;;;;5102432;27;21431;-44
2023/10/19 10:12:54;;;;;;;;;;;;;;;;;;5105118;27;20045;-44
2023/10/19 10:15:19;;;;;;;;;;;;;;;;;;5107174;27;20352;-46
2023/10/19 10:17:45;;;;;;;;;;;;;;;;;;5108355;27;19927;-45
2023/10/19 10:20:10;;;;;;;;;;;;;;;;;;5106725;27;19928;-44
2023/10/19 10:22:36;;;;;;;;;;;;;;;;;;5104093;27;20033;-44
2023/10/19 10:25:02;;;;;;;;;;;;;;;;;;5110128;27;20078;-43
2023/10/19 10:27:27;;;;;;;;;;;;;;;;;;5105069;27;19971;-45
2023/10/19 10:29:53;;;;;;;;;;;;;;;;;;5106888;27;20018;-46
2023/10/19 10:32:19;;;;;;;;;;;;;;;;;;5108219;27;20028;-44
2023/10/19 10:34:44;;;;;;;;;;;;;;;;;;5105163;27;19931;-43
2023/10/19 10:37:10;;;;;;;;;;;;;;;;;;5102888;27;20570;-45
2023/10/19 10:39:36;;;;;;;;;;;;;;;;;;5106392;27;19947;-43
2023/10/19 10:42:02;;;;;;;;;;;;;;;;;;5095008;27;20360;-43
2023/10/19 10:44:28;;;;;;;;;;;;;;;;;;5100459;27;20098;-47
2023/10/19 10:46:53;;;;;;;;;;;;;;;;;;5099896;27;20562;-43
2023/10/19 10:49:19;;;;;;;;;;;;;;;;;;5112754;27;19927;-46
2023/10/19 10:51:45;;;;;;;;;;;;;;;;;;5111080;28;20022;-44
2023/10/19 10:54:13;;;;;;;;;;;;;;;;;;5112384;28;20457;-46
2023/10/19 10:56:39;;;;;;;;;;;;;;;;;;5123998;27;19939;-43
2023/10/19 10:59:04;;;;;;;;;;;;;;;;;;5119021;27;19924;-43
2023/10/19 11:01:30;;;;;;;;;;;;;;;;;;5116362;27;19971;-44
2023/10/19 11:03:55;;;;;;;;;;;;;;;;;;5118690;27;19931;-45
2023/10/19 11:06:23;;;;;;;;;;;;;;;;;;5115437;27;20002;-44
2023/10/19 11:08:49;;;;;;;;;;;;;;;;;;5120412;27;19978;-43
2023/10/19 11:11:14;;;;;;;;;;;;;;;;;;5125401;27;19928;-45
2023/10/19 11:13:40;;;;;;;;;;;;;;;;;;5131044;27;20412;-47
2023/10/19 11:16:05;;;;;;;;;;;;;;;;;;5133850;27;19953;-43
2023/10/19 11:18:32;;;;;;;;;;;;;;;;;;5122311;27;19927;-44
2023/10/19 11:20:59;;;;;;;;;;;;;;;;;;5118895;27;20586;-45
2023/10/19 11:23:25;;;;;;;;;;;;;;;;;;5118545;27;19974;-44
2023/10/19 11:25:50;;;;;;;;;;;;;;;;;;5116702;27;19942;-46
2023/10/19 11:28:16;;;;;;;;;;;;;;;;;;5112581;27;19927;-47
2023/10/19 11:30:41;;;;;;;;;;;;;;;;;;5100385;27;19935;-48
2023/10/19 11:33:08;;;;;;;;;;;;;;;;;;5105974;28;20785;-44
2023/10/19 11:35:34;;;;;;;;;;;;;;;;;;5109612;27;19935;-44
2023/10/19 11:38:00;;;;;;;;;;;;;;;;;;5116021;27;20424;-45
2023/10/19 11:40:25;;;;;;;;;;;;;;;;;;5112683;27;20426;-43
2023/10/19 11:42:51;;;;;;;;;;;;;;;;;;5121078;28;19934;-47
2023/10/19 11:45:16;;;;;;;;;;;;;;;;;;5116352;27;19960;-44
2023/10/19 11:47:42;;;;;;;;;;;;;;;;;;5105337;27;19931;-45
2023/10/19 11:50:07;;;;;;;;;;;;;;;;;;5111990;27;19927;-46
2023/10/19 11:52:33;;;;;;;;;;;;;;;;;;5116340;28;19927;-44
2023/10/19 11:54:58;;;;;;;;;;;;;;;;;;5110533;27;19939;-42
2023/10/19 11:57:24;;;;;;;;;;;;;;;;;;5115723;27;20022;-44
2023/10/19 11:59:52;;;;;;;;;;;;;;;;;;5113783;27;20526;-44
2023/10/19 12:02:20;;;;;;;;;;;;;;;;;;5120770;28;20557;-48
2023/10/19 12:04:45;;;;;;;;;;;;;;;;;;5109982;28;19924;-43
2023/10/19 12:07:11;;;;;;;;;;;;;;;;;;5119154;27;19929;-43
2023/10/19 12:09:36;;;;;;;;;;;;;;;;;;5125161;27;20410;-43
2023/10/19 12:12:05;;;;;;;;;;;;;;;;;;5117826;28;19989;-43
2023/10/19 12:14:32;;;;;;;;;;;;;;;;;;5107040;28;19924;-45
2023/10/19 12:17:00;;;;;;;;;;;;;;;;;;5110705;27;20734;-45
2023/10/19 12:19:26;;;;;;;;;;;;;;;;;;5118701;27;20164;-45
2023/10/19 12:21:51;;;;;;;;;;;;;;;;;;5111670;27;20596;-43
2023/10/19 12:24:18;;;;;;;;;;;;;;;;;;5119604;28;19967;-46
2023/10/19 12:26:44;;;;;;;;;;;;;;;;;;5122344;27;20369;-43
2023/10/19 12:29:11;;;;;;;;;;;;;;;;;;5114786;27;20660;-43
2023/10/19 12:31:39;;;;;;;;;;;;;;;;;;5112128;27;19927;-44
2023/10/19 12:34:06;;;;;;;;;;;;;;;;;;5106474;28;19931;-44
2023/10/19 12:36:31;;;;;;;;;;;;;;;;;;5113411;28;19999;-45
2023/10/19 12:38:57;;;;;;;;;;;;;;;;;;5109941;27;20015;-46
2023/10/19 12:41:23;;;;;;;;;;;;;;;;;;5113542;28;20018;-49
2023/10/19 12:43:52;;;;;;;;;;;;;;;;;;5110620;28;19967;-45
2023/10/19 12:46:19;;;;;;;;;;;;;;;;;;5114676;28;19932;-44
2023/10/19 12:48:46;;;;;;;;;;;;;;;;;;5118072;27;19923;-45
2023/10/19 12:51:13;;;;;;;;;;;;;;;;;;5118420;27;19963;-45
2023/10/19 12:53:38;;;;;;;;;;;;;;;;;;5115672;28;19954;-44
2023/10/19 12:56:04;;;;;;;;;;;;;;;;;;5120254;28;20355;-44
2023/10/19 12:58:29;;;;;;;;;;;;;;;;;;5121338;27;20041;-44
2023/10/19 13:00:56;;;;;;;;;;;;;;;;;;5121707;28;19928;-43
2023/10/19 13:03:23;;;;;;;;;;;;;;;;;;5120031;28;19959;-44
2023/10/19 13:05:49;;;;;;;;;;;;;;;;;;5116884;28;21668;-44
2023/10/19 13:08:15;;;;;;;;;;;;;;;;;;5119543;27;19930;-43
2023/10/19 13:10:42;;;;;;;;;;;;;;;;;;5118383;28;20372;-43
2023/10/19 13:13:07;;;;;;;;;;;;;;;;;;5119310;28;20448;-44
2023/10/19 13:15:34;;;;;;;;;;;;;;;;;;5120416;28;19970;-42
2023/10/19 13:18:00;;;;;;;;;;;;;;;;;;5121647;27;20323;-42
2023/10/19 13:20:25;;;;;;;;;;;;;;;;;;5120282;27;20367;-48
2023/10/19 13:22:51;;;;;;;;;;;;;;;;;;5119650;27;19963;-43
2023/10/19 13:25:17;;;;;;;;;;;;;;;;;;5129042;27;19927;-44
2023/10/19 13:27:42;;;;;;;;;;;;;;;;;;5118568;27;19932;-46
2023/10/19 13:30:10;;;;;;;;;;;;;;;;;;5111238;28;19970;-44
2023/10/19 13:32:35;;;;;;;;;;;;;;;;;;5117388;28;19969;-44
2023/10/19 13:35:01;;;;;;;;;;;;;;;;;;5120044;28;19924;-43
2023/10/19 13:37:28;;;;;;;;;;;;;;;;;;5122502;27;19931;-46
2023/10/19 13:39:54;;;;;;;;;;;;;;;;;;5116939;27;20355;-46
2023/10/19 13:42:19;;;;;;;;;;;;;;;;;;5107619;27;20296;-43
2023/10/19 13:44:45;;;;;;;;;;;;;;;;;;5123323;27;19934;-47
2023/10/19 13:47:11;;;;;;;;;;;;;;;;;;5126968;27;19959;-42
2023/10/19 13:49:37;;;;;;;;;;;;;;;;;;5114825;27;20429;-44
2023/10/19 13:52:04;;;;;;;;;;;;;;;;;;5106389;28;19927;-43
2023/10/19 13:54:29;;;;;;;;;;;;;;;;;;5105460;28;19927;-47
2023/10/19 13:56:55;;;;;;;;;;;;;;;;;;5112900;27;19928;-44
2023/10/19 13:59:20;;;;;;;;;;;;;;;;;;5126662;27;20295;-43
2023/10/19 14:01:46;;;;;;;;;;;;;;;;;;5108772;28;19977;-46
2023/10/19 14:04:14;;;;;;;;;;;;;;;;;;5108021;28;20014;-42
2023/10/19 14:06:39;;;;;;;;;;;;;;;;;;5108491;28;20360;-46
2023/10/19 14:09:05;;;;;;;;;;;;;;;;;;5125911;27;20236;-43
2023/10/19 14:11:30;;;;;;;;;;;;;;;;;;5129433;28;19923;-43
2023/10/19 14:13:56;;;;;;;;;;;;;;;;;;5128972;28;19975;-43
2023/10/19 14:16:25;;;;;;;;;;;;;;;;;;5127983;28;20398;-43
2023/10/19 14:18:50;;;;;;;;;;;;;;;;;;5127572;27;19931;-43
2023/10/19 14:21:16;;;;;;;;;;;;;;;;;;5127433;28;19924;-43
2023/10/19 14:23:42;;;;;;;;;;;;;;;;;;5129397;28;19923;-42
2023/10/19 14:26:08;;;;;;;;;;;;;;;;;;5128799;28;19966;-42
2023/10/19 14:28:35;;;;;;;;;;;;;;;;;;5127775;27;19928;-45
2023/10/19 14:31:01;;;;;;;;;;;;;;;;;;5129475;28;19923;-42
2023/10/19 14:33:26;;;;;;;;;;;;;;;;;;5129459;28;19930;-43
2023/10/19 14:35:52;;;;;;;;;;;;;;;;;;5128642;28;19927;-44
2023/10/19 14:38:17;;;;;;;;;;;;;;;;;;5130469;27;20025;-46
2023/10/19 14:40:45;;;;;;;;;;;;;;;;;;5129536;28;19930;-46
2023/10/19 14:43:10;;;;;;;;;;;;;;;;;;5128618;27;19952;-48
2023/10/19 14:45:36;;;;;;;;;;;;;;;;;;5128982;28;20025;-44
2023/10/19 14:48:04;;;;;;;;;;;;;;;;;;5130273;27;20034;-45
2023/10/19 14:50:29;;;;;;;;;;;;;;;;;;5133589;27;19931;-45
2023/10/19 14:52:55;;;;;;;;;;;;;;;;;;5150238;27;20025;-43
2023/10/19 14:55:20;;;;;;;;;;;;;;;;;;5150064;27;19969;-43
2023/10/19 14:57:48;;;;;;;;;;;;;;;;;;5145995;27;19962;-45
2023/10/19 15:00:15;;;;;;;;;;;;;;;;;;5129637;28;19970;-42
2023/10/19 15:02:41;;;;;;;;;;;;;;;;;;5129137;28;19923;-44
2023/10/19 15:05:06;;;;;;;;;;;;;;;;;;5129604;28;20026;-44
2023/10/19 15:07:32;;;;;;;;;;;;;;;;;;5130218;27;19923;-43
2023/10/19 15:09:58;;;;;;;;;;;;;;;;;;5130035;28;19927;-47
2023/10/19 15:12:24;;;;;;;;;;;;;;;;;;5129726;27;19923;-43
2023/10/19 15:14:50;;;;;;;;;;;;;;;;;;5129302;28;20391;-43
2023/10/19 15:17:15;;;;;;;;;;;;;;;;;;5127925;28;19923;-43
2023/10/19 15:19:41;;;;;;;;;;;;;;;;;;5128230;27;19923;-43
2023/10/19 15:22:07;;;;;;;;;;;;;;;;;;5129132;28;20290;-43
2023/10/19 15:24:32;;;;;;;;;;;;;;;;;;5129181;28;20379;-43
2023/10/19 15:26:58;;;;;;;;;;;;;;;;;;5128702;28;20018;-44
2023/10/19 15:29:23;;;;;;;;;;;;;;;;;;5128107;27;19923;-43
2023/10/19 15:31:49;;;;;;;;;;;;;;;;;;5128984;28;20046;-42
2023/10/19 15:34:16;;;;;;;;;;;;;;;;;;5128643;28;19931;-42
2023/10/19 15:36:41;;;;;;;;;;;;;;;;;;5128287;28;20313;-44
2023/10/19 15:39:10;;;;;;;;;;;;;;;;;;5127956;27;21646;-46
2023/10/19 15:41:36;;;;;;;;;;;;;;;;;;5128724;27;19968;-43
2023/10/19 15:44:01;;;;;;;;;;;;;;;;;;5128832;28;20018;-43
2023/10/19 15:46:27;;;;;;;;;;;;;;;;;;5137377;27;20371;-43
2023/10/19 15:48:53;;;;;;;;;;;;;;;;;;5136809;27;19975;-45
2023/10/19 15:51:18;;;;;;;;;;;;;;;;;;5128646;28;19928;-44
2023/10/19 15:53:44;;;;;;;;;;;;;;;;;;5128251;28;19934;-44
2023/10/19 15:56:10;;;;;;;;;;;;;;;;;;5127631;28;20462;-43
2023/10/19 15:58:36;;;;;;;;;;;;;;;;;;5127650;27;19958;-43
2023/10/19 16:01:05;;;;;;;;;;;;;;;;;;5128728;28;19969;-44
2023/10/19 16:03:31;;;;;;;;;;;;;;;;;;5127974;28;19930;-45
2023/10/19 16:05:57;;;;;;;;;;;;;;;;;;5128099;28;20014;-46
2023/10/19 16:08:22;;;;;;;;;;;;;;;;;;5134853;27;19923;-44
2023/10/19 16:10:49;;;;;;;;;;;;;;;;;;5149169;27;19931;-45
2023/10/19 16:13:15;;;;;;;;;;;;;;;;;;5149640;27;19923;-45
2023/10/19 16:15:40;;;;;;;;;;;;;;;;;;5149539;27;19988;-44
2023/10/19 16:18:06;;;;;;;;;;;;;;;;;;5137143;27;19931;-46
2023/10/19 16:20:32;;;;;;;;;;;;;;;;;;5128616;28;20010;-43
2023/10/19 16:22:58;;;;;;;;;;;;;;;;;;5127800;27;19973;-44
2023/10/19 16:25:24;;;;;;;;;;;;;;;;;;5128094;28;20377;-44
2023/10/19 16:27:49;;;;;;;;;;;;;;;;;;5125798;27;20482;-44
2023/10/19 16:30:16;;;;;;;;;;;;;;;;;;5127866;28;20291;-44
2023/10/19 16:32:42;;;;;;;;;;;;;;;;;;5127102;28;19962;-43
2023/10/19 16:35:08;;;;;;;;;;;;;;;;;;5127402;28;19923;-44
2023/10/19 16:37:34;;;;;;;;;;;;;;;;;;5126162;27;20459;-43
2023/10/19 16:40:00;;;;;;;;;;;;;;;;;;5127088;27;19928;-44
2023/10/19 16:42:26;;;;;;;;;;;;;;;;;;5127513;28;20265;-43
2023/10/19 16:44:52;;;;;;;;;;;;;;;;;;5126198;28;20343;-43
2023/10/19 16:47:21;;;;;;;;;;;;;;;;;;5125874;28;19985;-45
2023/10/19 16:49:47;;;;;;;;;;;;;;;;;;5126090;27;19924;-43